Time;durP1;ratioP1;P1;durP2;ratioP2;P2;SDS_P1;SDS_P2;PMS_P1;PMS_P2;Temp;Humidity;BMP_temperature;BMP_pressure;BME280_temperature;BME280_humidity;BME280_pressure;Samples;Min_cycle;Max_cycle;Signal;HPM_P1;HPM_P2
2022/09/19 00:01:46;;;;;;;12.90;2.70;;;11.30;99.90;;;;;;5022155;28;20117;-84
2022/09/19 00:04:19;;;;;;;13.07;2.28;;;11.30;99.90;;;;;;5021754;28;20038;-84
2022/09/19 00:06:47;;;;;;;12.85;2.70;;;11.30;99.90;;;;;;5022867;28;20037;-84
2022/09/19 00:09:16;;;;;;;12.68;2.20;;;11.30;99.90;;;;;;5019254;28;20131;-84
2022/09/19 00:11:44;;;;;;;15.48;2.80;;;11.30;99.90;;;;;;5018454;28;20095;-84
2022/09/19 00:14:14;;;;;;;16.15;3.08;;;11.30;99.90;;;;;;5025531;28;20071;-84
2022/09/19 00:16:44;;;;;;;16.50;3.20;;;11.30;99.90;;;;;;5018557;28;20033;-84
2022/09/19 00:19:12;;;;;;;15.55;3.10;;;11.30;99.90;;;;;;5022207;28;20069;-84
2022/09/19 00:21:41;;;;;;;12.93;2.47;;;11.30;99.90;;;;;;5024195;28;20052;-84
2022/09/19 00:27:03;;;;;;;13.27;2.53;;;11.40;99.90;;;;;;5003277;28;20048;-84
2022/09/19 00:29:31;;;;;;;15.05;2.85;;;11.40;99.90;;;;;;5003434;28;20088;-84
2022/09/19 00:32:11;;;;;;;12.60;2.50;;;11.40;99.90;;;;;;5001411;28;20104;-84
2022/09/19 00:34:43;;;;;;;9.65;2.03;;;11.40;99.90;;;;;;5019244;28;20033;-84
2022/09/19 00:37:11;;;;;;;14.93;3.03;;;11.40;99.90;;;;;;5001431;28;20049;-85
2022/09/19 00:39:37;;;;;;;10.38;2.08;;;11.40;99.90;;;;;;5007898;28;20048;-85
2022/09/19 00:42:15;;;;;;;13.02;2.75;;;11.50;99.90;;;;;;5020935;28;20117;-85
2022/09/19 00:44:41;;;;;;;8.98;1.95;;;11.50;99.90;;;;;;5002489;28;20071;-85
2022/09/19 00:47:16;;;;;;;13.07;2.25;;;11.50;99.90;;;;;;5034704;22;20414;-85
2022/09/19 00:49:46;;;;;;;8.93;1.42;;;11.50;99.90;;;;;;5042169;28;20056;-85
2022/09/19 00:52:21;;;;;;;9.82;1.90;;;11.50;99.90;;;;;;5038988;28;20045;-84
2022/09/19 00:54:57;;;;;;;10.07;1.98;;;11.50;99.90;;;;;;5043060;28;20047;-85
2022/09/19 00:57:30;;;;;;;9.55;1.85;;;11.50;99.90;;;;;;5037422;28;20543;-85
2022/09/19 00:59:57;;;;;;;12.75;2.60;;;11.50;99.90;;;;;;5025100;28;20065;-84
2022/09/19 01:02:32;;;;;;;14.07;2.10;;;11.50;99.90;;;;;;5045174;28;20041;-84
2022/09/19 01:05:01;;;;;;;10.50;1.73;;;11.60;99.90;;;;;;5032691;28;20056;-85
2022/09/19 01:07:33;;;;;;;10.90;1.70;;;11.50;99.90;;;;;;5032157;28;20040;-84
2022/09/19 01:10:06;;;;;;;11.48;2.30;;;11.50;99.90;;;;;;5030869;28;20051;-86
2022/09/19 01:12:51;;;;;;;9.82;1.70;;;11.60;99.90;;;;;;5041332;28;20049;-85
2022/09/19 01:16:15;;;;;;;10.60;1.98;;;11.50;99.90;;;;;;5049908;28;20040;-84
2022/09/19 01:18:51;;;;;;;8.73;1.70;;;11.50;99.90;;;;;;4965213;28;20506;-84
2022/09/19 01:21:38;;;;;;;10.05;1.90;;;11.50;99.90;;;;;;4964328;28;20038;-85
2022/09/19 01:24:19;;;;;;;11.23;2.03;;;11.50;99.90;;;;;;5021754;28;20053;-85
2022/09/19 01:27:06;;;;;;;10.63;2.25;;;11.50;99.90;;;;;;5043954;28;20044;-84
2022/09/19 01:29:35;;;;;;;;;;;11.40;99.90;;;;;;5038001;28;20045;-85
2022/09/19 01:32:08;;;;;;;10.65;2.03;;;11.40;99.90;;;;;;5020247;28;20321;-84
2022/09/19 01:34:43;;;;;;;9.88;1.80;;;11.40;99.90;;;;;;5039122;28;20032;-84
2022/09/19 01:37:17;;;;;;;12.40;2.55;;;11.40;99.90;;;;;;5042693;28;20052;-84
2022/09/19 01:39:46;;;;;;;12.32;2.30;;;11.40;99.90;;;;;;5024464;28;20056;-85
2022/09/19 01:42:14;;;;;;;11.68;2.00;;;11.40;99.90;;;;;;5041496;28;20598;-84
2022/09/19 01:44:40;;;;;;;13.25;2.70;;;11.50;99.90;;;;;;5030697;28;20080;-84
2022/09/19 01:47:18;;;;;;;9.50;2.17;;;11.50;99.90;;;;;;5040837;28;20120;-84
2022/09/19 01:50:01;;;;;;;13.23;2.85;;;11.50;99.90;;;;;;5023682;28;20483;-84
2022/09/19 01:52:51;;;;;;;10.75;1.98;;;11.50;99.90;;;;;;5023042;28;20056;-84
2022/09/19 01:55:40;;;;;;;13.30;2.72;;;11.60;99.90;;;;;;5025594;28;20648;-83
2022/09/19 01:58:25;;;;;;;16.77;3.13;;;11.60;99.90;;;;;;5031268;28;20132;-84
2022/09/19 02:01:04;;;;;;;13.05;2.60;;;11.60;99.90;;;;;;5035644;28;20400;-83
2022/09/19 02:03:49;;;;;;;15.35;2.60;;;11.60;99.90;;;;;;5018020;28;20121;-84
2022/09/19 02:06:22;;;;;;;13.52;2.30;;;11.60;99.90;;;;;;5021468;28;20102;-84
2022/09/19 02:08:51;;;;;;;13.38;2.83;;;11.60;99.90;;;;;;5025272;28;20484;-85
2022/09/19 02:11:19;;;;;;;15.85;3.00;;;11.60;99.90;;;;;;5031126;28;20393;-85
2022/09/19 02:13:51;;;;;;;11.38;2.60;;;11.50;99.90;;;;;;5036120;28;20037;-85
2022/09/19 02:16:28;;;;;;;15.40;2.70;;;11.50;99.90;;;;;;5043909;28;20051;-85
2022/09/19 02:19:01;;;;;;;14.35;2.42;;;11.50;99.90;;;;;;5034218;28;20075;-85
2022/09/19 02:21:42;;;;;;;17.00;2.78;;;11.50;99.90;;;;;;5041532;28;20045;-84
2022/09/19 02:24:13;;;;;;;17.88;2.53;;;11.50;99.90;;;;;;5039044;28;20095;-85
2022/09/19 02:26:42;;;;;;;13.88;2.85;;;11.40;99.90;;;;;;5044405;28;20116;-85
2022/09/19 02:29:14;;;;;;;15.57;2.60;;;11.40;99.90;;;;;;5037991;28;20500;-85
2022/09/19 02:31:40;;;;;;;16.30;2.75;;;11.50;99.90;;;;;;5017879;28;20092;-85
2022/09/19 02:34:07;;;;;;;16.20;2.60;;;11.40;99.90;;;;;;5034088;28;20041;-84
2022/09/19 02:36:42;;;;;;;;;;;11.40;99.90;;;;;;5041558;28;20041;-85
2022/09/19 02:39:26;;;;;;;15.05;2.85;;;11.30;99.90;;;;;;5040944;28;19963;-84
2022/09/19 02:42:07;;;;;;;16.30;2.80;;;11.40;99.90;;;;;;5040080;28;20071;-85
2022/09/19 02:44:39;;;;;;;15.88;2.67;;;11.40;99.90;;;;;;5041615;28;20037;-85
2022/09/19 02:47:05;;;;;;;14.32;2.45;;;11.40;99.90;;;;;;5016615;28;20107;-85
2022/09/19 02:49:50;;;;;;;14.40;2.35;;;11.40;99.90;;;;;;5024884;28;20045;-82
2022/09/19 02:52:20;;;;;;;17.08;2.80;;;11.30;99.90;;;;;;5034449;28;20045;-84
2022/09/19 02:54:51;;;;;;;14.48;2.85;;;11.30;99.90;;;;;;5048972;28;20033;-84
2022/09/19 02:57:21;;;;;;;13.75;2.97;;;11.30;99.90;;;;;;5042333;28;20485;-84
2022/09/19 02:59:51;;;;;;;15.55;2.60;;;11.40;99.90;;;;;;5015169;28;20041;-84
2022/09/19 03:02:22;;;;;;;15.02;2.70;;;11.30;99.90;;;;;;5030858;23;20531;-84
2022/09/19 03:04:55;;;;;;;15.73;3.40;;;11.40;99.90;;;;;;5037452;28;20053;-84
2022/09/19 03:07:27;;;;;;;15.68;2.85;;;11.40;99.90;;;;;;5022179;28;20258;-84
2022/09/19 03:10:21;;;;;;;13.15;2.83;;;11.40;99.90;;;;;;5022681;28;20045;-84
2022/09/19 03:12:57;;;;;;;15.50;3.42;;;11.40;99.90;;;;;;5020083;28;20053;-85
2022/09/19 03:15:42;;;;;;;14.65;3.58;;;11.50;99.90;;;;;;5041887;28;20053;-84
2022/09/19 03:18:13;;;;;;;16.52;3.17;;;11.50;99.90;;;;;;5039914;28;20053;-85
2022/09/19 03:20:48;;;;;;;18.17;2.67;;;11.50;99.90;;;;;;5042280;28;20095;-84
2022/09/19 03:23:23;;;;;;;19.30;3.13;;;11.50;99.90;;;;;;5038389;28;20045;-84
2022/09/19 03:25:49;;;;;;;19.73;3.13;;;11.50;99.90;;;;;;5039854;28;20037;-85
2022/09/19 03:28:19;;;;;;;19.25;3.42;;;11.50;99.90;;;;;;5039623;28;20044;-86
2022/09/19 03:30:46;;;;;;;15.82;2.78;;;11.50;99.90;;;;;;5019531;28;20048;-84
2022/09/19 03:33:15;;;;;;;16.95;3.00;;;11.50;99.90;;;;;;5034206;28;20847;-85
2022/09/19 03:35:47;;;;;;;16.85;3.20;;;11.50;99.90;;;;;;5037459;28;20060;-84
2022/09/19 03:38:13;;;;;;;18.73;3.00;;;11.60;99.90;;;;;;5039896;28;20136;-84
2022/09/19 03:40:40;;;;;;;20.48;3.35;;;11.60;99.90;;;;;;5037521;28;20049;-83
2022/09/19 03:43:09;;;;;;;16.30;2.90;;;11.60;99.90;;;;;;5014827;28;20076;-84
2022/09/19 03:45:34;;;;;;;21.05;4.28;;;11.60;99.90;;;;;;5022288;28;20041;-84
2022/09/19 03:48:01;;;;;;;18.55;2.88;;;11.60;99.90;;;;;;5033318;28;20057;-84
2022/09/19 03:50:27;;;;;;;19.27;3.25;;;11.60;99.90;;;;;;5025242;28;20040;-83
2022/09/19 03:52:54;;;;;;;16.75;2.97;;;11.60;99.90;;;;;;5038949;28;20041;-83
2022/09/19 03:55:20;;;;;;;18.70;2.85;;;11.60;99.90;;;;;;5038614;28;20067;-84
2022/09/19 03:57:46;;;;;;;17.42;3.10;;;11.60;99.90;;;;;;5021437;28;20051;-84
2022/09/19 04:00:12;;;;;;;13.15;2.80;;;11.60;99.90;;;;;;5019079;28;20048;-84
2022/09/19 04:02:41;;;;;;;15.73;2.60;;;11.60;99.90;;;;;;5039874;28;20064;-84
2022/09/19 04:05:07;;;;;;;14.80;2.95;;;11.60;99.90;;;;;;5021760;28;20049;-84
2022/09/19 04:07:33;;;;;;;16.13;2.97;;;11.60;99.90;;;;;;5020674;28;20041;-84
2022/09/19 04:09:59;;;;;;;15.52;2.63;;;11.60;99.90;;;;;;5044993;28;20658;-83
2022/09/19 04:12:25;;;;;;;14.75;2.60;;;11.60;99.90;;;;;;5026512;28;20045;-84
2022/09/19 04:14:52;;;;;;;15.18;2.80;;;11.60;99.90;;;;;;5041494;28;20045;-85
2022/09/19 04:17:30;;;;;;;15.43;3.00;;;11.50;99.90;;;;;;5045557;28;20041;-84
2022/09/19 04:19:56;;;;;;;14.55;2.92;;;11.60;99.90;;;;;;5038702;28;20048;-84
2022/09/19 04:22:24;;;;;;;15.05;2.70;;;11.50;99.90;;;;;;5040708;28;20037;-84
2022/09/19 04:24:51;;;;;;;16.95;2.30;;;11.50;99.90;;;;;;5042599;28;20055;-84
2022/09/19 04:27:17;;;;;;;16.08;2.50;;;11.50;99.90;;;;;;5046394;28;20037;-84
2022/09/19 04:29:43;;;;;;;14.13;2.80;;;11.50;99.90;;;;;;5042192;28;20120;-84
2022/09/19 04:32:21;;;;;;;13.18;2.25;;;11.50;99.90;;;;;;5024530;28;20280;-84
2022/09/19 04:34:47;;;;;;;19.52;3.08;;;11.50;99.90;;;;;;5041080;28;20072;-84
2022/09/19 04:37:15;;;;;;;15.77;2.30;;;11.50;99.90;;;;;;5044919;28;20048;-83
2022/09/19 04:39:47;;;;;;;;;;;11.50;99.90;;;;;;5039166;28;20300;-83
2022/09/19 04:42:13;;;;;;;19.60;3.22;;;11.40;99.90;;;;;;5042605;28;19928;-84
2022/09/19 04:44:39;;;;;;;10.50;2.40;;;11.40;99.90;;;;;;5041814;28;20045;-84
2022/09/19 04:47:08;;;;;;;16.67;2.90;;;11.40;99.90;;;;;;5044257;28;20048;-84
2022/09/19 04:49:39;;;;;;;15.55;2.92;;;11.40;99.90;;;;;;5044222;28;20173;-84
2022/09/19 04:52:12;;;;;;;15.68;3.28;;;11.50;99.90;;;;;;5041270;28;20127;-84
2022/09/19 04:54:39;;;;;;;17.23;2.50;;;11.40;99.90;;;;;;5044039;28;20041;-84
2022/09/19 04:57:06;;;;;;;16.45;3.20;;;11.50;99.90;;;;;;5025830;28;20041;-84
2022/09/19 04:59:36;;;;;;;16.23;2.70;;;11.50;99.90;;;;;;5022894;28;20102;-84
2022/09/19 05:02:05;;;;;;;16.35;2.85;;;11.50;99.90;;;;;;5040943;28;20048;-84
2022/09/19 05:04:57;;;;;;;12.55;2.75;;;11.40;99.90;;;;;;5038092;28;20053;-83
2022/09/19 05:07:33;;;;;;;15.05;2.70;;;11.50;99.90;;;;;;5043753;28;20574;-78
2022/09/19 05:10:08;;;;;;;14.60;2.95;;;11.50;99.90;;;;;;5033078;28;20052;-85
2022/09/19 05:12:34;;;;;;;16.63;2.70;;;11.50;99.90;;;;;;5038990;28;20122;-84
2022/09/19 05:15:03;;;;;;;17.60;3.63;;;11.40;99.90;;;;;;5024100;28;20055;-85
2022/09/19 05:17:30;;;;;;;15.55;2.55;;;11.40;99.90;;;;;;5040270;28;20052;-85
2022/09/19 05:20:06;;;;;;;15.63;2.95;;;11.50;99.90;;;;;;5023790;28;20029;-84
2022/09/19 05:22:33;;;;;;;16.60;2.80;;;11.40;99.90;;;;;;5028639;28;20103;-86
2022/09/19 05:25:09;;;;;;;12.43;2.20;;;11.50;99.90;;;;;;5020301;28;20106;-85
2022/09/19 05:27:36;;;;;;;18.58;2.83;;;11.50;99.90;;;;;;5042256;28;20041;-84
2022/09/19 05:30:26;;;;;;;18.05;3.10;;;11.50;99.90;;;;;;5016515;28;20052;-85
2022/09/19 05:32:52;;;;;;;15.10;3.17;;;11.50;99.90;;;;;;5020662;28;20550;-83
2022/09/19 05:35:18;;;;;;;14.45;2.38;;;11.50;99.90;;;;;;5041284;28;20033;-84
2022/09/19 05:37:51;;;;;;;17.45;2.63;;;11.50;99.90;;;;;;5022320;28;20446;-83
2022/09/19 05:40:18;;;;;;;15.95;2.80;;;11.50;99.90;;;;;;5034888;28;20052;-83
2022/09/19 05:43:02;;;;;;;18.83;3.50;;;11.50;99.90;;;;;;5041217;28;20048;-83
2022/09/19 05:45:55;;;;;;;16.05;3.05;;;11.60;99.90;;;;;;5049960;23;20038;-84
2022/09/19 05:48:22;;;;;;;19.52;2.95;;;11.60;99.90;;;;;;5042177;28;20057;-84
2022/09/19 05:50:57;;;;;;;19.58;3.03;;;11.60;99.90;;;;;;5037397;28;20052;-84
2022/09/19 05:56:13;;;;;;;17.88;3.20;;;11.70;99.90;;;;;;5019196;23;20053;-83
2022/09/19 05:58:39;;;;;;;16.15;2.50;;;11.70;99.90;;;;;;4997221;23;20065;-83
2022/09/19 06:01:06;;;;;;;18.58;3.03;;;11.70;99.90;;;;;;5038902;28;20076;-83
2022/09/19 06:03:34;;;;;;;17.08;3.35;;;11.70;99.90;;;;;;5018158;23;20068;-82
2022/09/19 06:06:11;;;;;;;15.35;2.78;;;11.70;99.90;;;;;;5021606;28;20042;-83
2022/09/19 06:08:43;;;;;;;;;;;11.80;99.90;;;;;;5005058;28;20038;-78
2022/09/19 06:11:09;;;;;;;14.52;2.85;;;11.70;99.90;;;;;;5001921;28;19932;-82
2022/09/19 06:16:29;;;;;;;16.08;2.67;;;11.80;99.90;;;;;;5003146;28;20091;-77
2022/09/19 06:18:55;;;;;;;16.83;2.95;;;11.80;99.90;;;;;;5004994;28;20049;-80
2022/09/19 06:21:21;;;;;;;18.60;3.33;;;11.80;99.90;;;;;;5016780;28;20067;-81
2022/09/19 06:23:46;;;;;;;17.38;3.42;;;11.80;99.90;;;;;;5005155;28;20064;-84
2022/09/19 06:26:12;;;;;;;15.30;2.55;;;11.80;99.90;;;;;;5021234;28;20052;-84
2022/09/19 06:28:38;;;;;;;15.27;2.92;;;11.80;99.90;;;;;;5007173;28;20045;-83
2022/09/19 06:31:05;;;;;;;18.92;3.10;;;11.70;99.90;;;;;;5033992;28;20081;-83
2022/09/19 06:33:31;;;;;;;19.40;2.92;;;11.80;99.90;;;;;;5004480;28;20672;-79
2022/09/19 06:35:59;;;;;;;14.95;3.08;;;11.80;99.90;;;;;;5001873;28;20106;-84
2022/09/19 06:38:25;;;;;;;;;;;11.90;99.90;;;;;;5006102;28;20046;-85
2022/09/19 06:40:51;;;;;;;16.88;2.60;;;11.90;99.90;;;;;;5024158;28;19924;-83
2022/09/19 06:43:17;;;;;;;16.25;3.15;;;11.90;99.90;;;;;;5026720;28;20091;-83
2022/09/19 06:45:47;;;;;;;16.05;3.03;;;11.90;99.90;;;;;;5023327;28;20136;-86
2022/09/19 06:48:13;;;;;;;17.38;3.22;;;11.90;99.90;;;;;;5022838;28;20049;-82
2022/09/19 06:50:39;;;;;;;19.10;3.53;;;11.90;99.90;;;;;;5019551;28;20039;-81
2022/09/19 06:53:32;;;;;;;18.27;3.20;;;12.00;99.90;;;;;;5029561;28;20046;-86
2022/09/19 06:55:58;;;;;;;12.90;2.90;;;12.00;99.90;;;;;;5023452;28;20081;-83
2022/09/19 06:58:26;;;;;;;18.00;3.20;;;12.10;99.90;;;;;;5020832;28;20053;-79
2022/09/19 07:00:53;;;;;;;18.98;3.15;;;12.20;99.90;;;;;;5025576;28;20056;-82
2022/09/19 07:03:19;;;;;;;12.77;2.33;;;12.30;99.90;;;;;;5024114;28;20512;-79
2022/09/19 07:05:45;;;;;;;14.57;2.60;;;12.30;99.90;;;;;;5025238;28;20076;-80
2022/09/19 07:08:13;;;;;;;14.52;2.42;;;12.40;99.90;;;;;;5021824;28;20048;-79
2022/09/19 07:10:38;;;;;;;;;;;12.50;99.90;;;;;;5026757;28;20081;-80
2022/09/19 07:13:05;;;;;;;13.90;2.65;;;12.50;99.90;;;;;;5019679;28;20008;-81
2022/09/19 07:15:33;;;;;;;15.75;2.53;;;12.50;99.90;;;;;;5005031;28;20053;-79
2022/09/19 07:17:59;;;;;;;12.95;2.22;;;12.50;99.90;;;;;;5021839;28;20063;-80
2022/09/19 07:20:26;;;;;;;12.55;2.42;;;12.50;99.90;;;;;;5022725;28;20551;-78
2022/09/19 07:23:00;;;;;;;15.25;2.70;;;12.50;99.90;;;;;;5006965;28;20041;-78
2022/09/19 07:25:27;;;;;;;11.68;2.65;;;12.50;99.90;;;;;;5021209;28;20053;-82
2022/09/19 07:28:01;;;;;;;17.30;2.50;;;12.60;99.90;;;;;;5025283;28;20037;-83
2022/09/19 07:30:28;;;;;;;18.42;3.00;;;12.60;99.90;;;;;;5000681;28;20072;-86
2022/09/19 07:32:58;;;;;;;14.25;2.67;;;12.70;99.90;;;;;;5022162;28;20041;-87
2022/09/19 07:35:28;;;;;;;15.25;2.88;;;12.80;99.90;;;;;;5024778;28;20524;-83
2022/09/19 07:37:55;;;;;;;11.48;2.42;;;12.90;99.90;;;;;;5005936;28;20038;-81
2022/09/19 07:40:22;;;;;;;14.82;3.00;;;13.00;99.90;;;;;;5023665;28;20056;-83
2022/09/19 07:42:48;;;;;;;16.50;2.67;;;13.10;99.90;;;;;;5020497;28;20499;-87
2022/09/19 07:45:14;;;;;;;14.93;2.88;;;13.20;99.90;;;;;;5025459;28;20088;-82
2022/09/19 07:47:44;;;;;;;16.67;2.75;;;13.20;99.90;;;;;;5008528;28;20104;-82
2022/09/19 07:50:12;;;;;;;17.20;3.20;;;13.20;99.90;;;;;;5027675;28;20052;-81
2022/09/19 07:52:38;;;;;;;12.80;3.17;;;13.20;99.90;;;;;;5009189;28;20046;-79
2022/09/19 07:55:05;;;;;;;13.57;2.55;;;13.20;99.90;;;;;;5009042;28;20124;-81
2022/09/19 07:57:31;;;;;;;16.20;2.60;;;13.20;99.90;;;;;;5030992;28;20052;-81
2022/09/19 07:59:57;;;;;;;13.35;2.65;;;13.30;99.90;;;;;;5024788;28;20045;-78
2022/09/19 08:02:23;;;;;;;13.15;2.80;;;13.20;99.90;;;;;;5027040;28;20401;-83
2022/09/19 08:04:49;;;;;;;13.25;2.33;;;13.20;99.90;;;;;;5027351;28;20061;-83
2022/09/19 08:07:15;;;;;;;15.38;3.35;;;13.20;99.90;;;;;;5013213;28;20037;-84
2022/09/19 08:09:40;;;;;;;15.55;3.35;;;13.20;99.90;;;;;;5006090;28;20048;-85
2022/09/19 08:12:07;;;;;;;10.75;2.35;;;13.20;99.90;;;;;;5027178;28;20049;-79
2022/09/19 08:14:34;;;;;;;13.02;2.47;;;13.20;99.90;;;;;;5026359;28;20088;-79
2022/09/19 08:17:00;;;;;;;14.90;2.75;;;13.30;99.90;;;;;;5025435;28;20502;-79
2022/09/19 08:19:27;;;;;;;13.27;2.08;;;13.40;99.90;;;;;;5025570;28;20033;-76
2022/09/19 08:21:52;;;;;;;10.20;2.40;;;13.40;99.90;;;;;;5025849;28;20128;-83
2022/09/19 08:24:18;;;;;;;12.95;2.55;;;13.50;99.90;;;;;;5005391;28;20656;-82
2022/09/19 08:26:44;;;;;;;15.02;2.40;;;13.70;99.90;;;;;;5023190;28;20049;-80
2022/09/19 08:29:10;;;;;;;13.80;2.58;;;13.70;99.90;;;;;;5004898;28;20053;-78
2022/09/19 08:31:38;;;;;;;14.82;2.47;;;13.80;99.90;;;;;;5016106;28;20156;-83
2022/09/19 08:34:30;;;;;;;14.27;2.42;;;13.80;99.90;;;;;;5008807;28;20095;-83
2022/09/19 08:37:00;;;;;;;14.80;2.55;;;13.90;99.90;;;;;;5006407;28;20047;-84
2022/09/19 08:39:26;;;;;;;13.38;2.95;;;13.90;99.90;;;;;;5025534;28;20133;-79
2022/09/19 08:42:07;;;;;;;15.88;3.08;;;14.00;99.90;;;;;;5009219;28;20072;-79
2022/09/19 08:44:45;;;;;;;12.85;2.33;;;14.00;99.90;;;;;;5025480;28;20100;-79
2022/09/19 08:47:15;;;;;;;11.10;2.28;;;14.10;99.90;;;;;;5022769;28;20159;-75
2022/09/19 08:49:50;;;;;;;12.45;2.45;;;14.20;99.90;;;;;;5027167;28;20124;-76
2022/09/19 08:52:30;;;;;;;9.35;2.00;;;14.30;99.90;;;;;;5009561;28;20187;-77
2022/09/19 08:54:57;;;;;;;12.82;2.58;;;14.40;99.90;;;;;;5009681;28;20106;-78
2022/09/19 08:57:30;;;;;;;13.02;2.78;;;14.50;99.90;;;;;;5002998;28;21038;-78
2022/09/19 09:00:02;;;;;;;13.00;2.47;;;14.50;99.90;;;;;;5022408;28;20042;-78
2022/09/19 09:02:53;;;;;;;14.63;3.10;;;14.50;99.90;;;;;;5018969;28;20065;-77
2022/09/19 09:05:49;;;;;;;12.63;2.50;;;14.40;99.90;;;;;;5021393;28;20053;-77
2022/09/19 09:08:27;;;;;;;15.20;2.67;;;14.40;99.90;;;;;;5003866;28;20080;-84
2022/09/19 09:11:11;;;;;;;13.55;3.35;;;14.50;99.90;;;;;;5003267;28;20041;-82
2022/09/19 09:13:54;;;;;;;14.32;2.65;;;14.60;99.90;;;;;;5019517;28;20395;-79
2022/09/19 09:16:39;;;;;;;14.30;3.20;;;14.70;99.90;;;;;;5001126;28;20064;-81
2022/09/19 09:19:17;;;;;;;20.85;3.10;;;14.70;99.90;;;;;;5003740;28;20049;-83
2022/09/19 09:21:59;;;;;;;14.07;2.38;;;14.70;99.90;;;;;;4995125;28;20045;-80
2022/09/19 09:24:47;;;;;;;15.50;2.55;;;14.70;99.90;;;;;;5025569;28;20316;-80
2022/09/19 09:27:20;;;;;;;14.68;2.50;;;14.80;99.90;;;;;;5027126;28;20137;-78
2022/09/19 09:29:58;;;;;;;15.32;2.55;;;14.90;99.90;;;;;;5026329;28;20077;-78
2022/09/19 09:32:30;;;;;;;;;;;14.90;99.90;;;;;;5004897;28;20049;-81
2022/09/19 09:35:07;;;;;;;18.42;3.63;;;15.00;99.90;;;;;;5024729;28;19977;-78
2022/09/19 09:38:02;;;;;;;14.40;2.70;;;15.10;99.90;;;;;;5024155;28;20038;-78
2022/09/19 09:43:52;;;;;;;15.63;2.70;;;15.20;99.90;;;;;;5007136;28;20050;-78
2022/09/19 09:46:31;;;;;;;14.85;3.05;;;15.30;99.90;;;;;;4991662;28;20281;-80
2022/09/19 09:48:56;;;;;;;15.90;3.38;;;15.40;99.90;;;;;;5025381;28;20041;-79
2022/09/19 09:51:43;;;;;;;17.13;2.88;;;15.50;99.90;;;;;;5026559;28;20037;-80
2022/09/19 09:57:19;;;;;;;16.90;3.03;;;15.60;99.90;;;;;;5020159;28;20045;-84
2022/09/19 10:05:42;;;;;;;15.52;2.63;;;15.90;99.90;;;;;;4998224;28;20063;-83
2022/09/19 10:08:28;;;;;;;12.00;2.10;;;15.90;99.90;;;;;;5019100;28;20045;-81
2022/09/19 10:11:17;;;;;;;10.75;1.85;;;16.00;99.90;;;;;;5017483;28;20076;-80
2022/09/19 10:14:01;;;;;;;11.50;2.65;;;16.00;99.90;;;;;;5011087;28;20048;-79
2022/09/19 10:16:32;;;;;;;14.07;2.75;;;16.10;99.90;;;;;;5003532;28;20423;-82
2022/09/19 10:19:11;;;;;;;12.90;2.47;;;16.20;99.90;;;;;;5026322;28;20075;-80
2022/09/19 10:21:38;;;;;;;14.00;2.40;;;16.20;99.90;;;;;;5006975;28;20056;-78
2022/09/19 10:24:40;;;;;;;10.43;2.78;;;16.30;99.90;;;;;;5002843;28;20057;-76
2022/09/19 10:27:23;;;;;;;15.82;2.85;;;16.40;99.90;;;;;;5014954;28;20044;-80
2022/09/19 10:29:59;;;;;;;12.80;2.47;;;16.40;99.90;;;;;;4997277;28;20053;-80
2022/09/19 10:32:34;;;;;;;9.82;2.42;;;16.30;99.90;;;;;;5020035;28;20713;-79
2022/09/19 10:35:01;;;;;;;9.23;2.45;;;16.30;99.90;;;;;;5006080;28;20049;-74
2022/09/19 10:37:27;;;;;;;14.68;2.42;;;16.20;99.90;;;;;;5002069;28;20135;-80
2022/09/19 10:40:00;;;;;;;14.02;2.55;;;16.20;99.90;;;;;;5006022;28;20396;-81
2022/09/19 10:42:42;;;;;;;16.60;3.22;;;16.10;99.90;;;;;;5004476;28;20053;-78
2022/09/19 10:45:25;;;;;;;11.05;2.42;;;16.00;99.90;;;;;;5017492;28;20057;-77
2022/09/19 10:48:15;;;;;;;12.43;2.47;;;15.80;99.90;;;;;;5019324;28;20044;-77
2022/09/19 10:50:43;;;;;;;15.50;3.10;;;15.80;99.90;;;;;;4993509;28;20046;-78
2022/09/19 10:53:22;;;;;;;15.02;2.85;;;16.00;99.90;;;;;;5020353;28;20058;-79
2022/09/19 10:55:48;;;;;;;12.85;2.83;;;16.10;99.90;;;;;;4997841;28;20053;-78
2022/09/19 10:58:22;;;;;;;15.77;2.90;;;16.20;99.90;;;;;;5023880;28;20037;-79
2022/09/19 11:01:01;;;;;;;13.25;2.42;;;16.40;99.90;;;;;;5019341;28;20373;-81
2022/09/19 11:03:39;;;;;;;8.88;2.28;;;16.50;99.90;;;;;;5017133;28;20067;-81
2022/09/19 11:06:12;;;;;;;9.35;2.00;;;16.30;99.90;;;;;;5020044;28;20048;-81
2022/09/19 11:08:44;;;;;;;10.85;1.60;;;16.00;99.90;;;;;;5020499;28;20779;-82
2022/09/19 11:11:47;;;;;;;10.75;2.25;;;15.60;99.90;;;;;;5009698;28;20056;-81
2022/09/19 11:14:37;;;;;;;6.05;1.30;;;15.30;99.90;;;;;;4995873;28;20112;-80
2022/09/19 11:17:29;;;;;;;9.85;1.50;;;15.20;99.90;;;;;;5002833;28;20077;-76
2022/09/19 11:20:29;;;;;;;7.75;1.80;;;15.30;99.90;;;;;;5024343;28;20042;-78
2022/09/19 11:23:17;;;;;;;7.32;1.90;;;15.30;99.90;;;;;;5027865;28;20042;-77
2022/09/19 11:26:22;;;;;;;7.68;1.70;;;15.30;99.90;;;;;;5020183;28;20094;-77
2022/09/19 11:29:09;;;;;;;5.85;1.60;;;15.30;99.90;;;;;;5010095;28;20041;-76
2022/09/19 11:32:03;;;;;;;6.50;1.77;;;15.30;99.90;;;;;;5027414;28;20045;-77
2022/09/19 11:34:36;;;;;;;5.88;1.40;;;15.40;99.90;;;;;;5024713;28;20496;-77
2022/09/19 11:37:41;;;;;;;7.72;1.70;;;15.40;99.90;;;;;;5023919;28;20049;-79
2022/09/19 11:40:16;;;;;;;11.15;1.70;;;15.60;99.90;;;;;;5027180;28;20050;-78
2022/09/19 11:42:57;;;;;;;8.77;1.67;;;15.70;99.90;;;;;;5024516;28;20037;-83
2022/09/19 11:45:30;;;;;;;9.48;1.80;;;15.90;99.90;;;;;;5006559;28;20473;-80
2022/09/19 11:48:01;;;;;;;10.50;1.90;;;16.00;99.90;;;;;;5008223;28;20501;-77
2022/09/19 11:50:59;;;;;;;9.95;1.83;;;16.10;99.90;;;;;;5023211;28;20234;-78
2022/09/19 11:53:28;;;;;;;10.57;2.28;;;16.20;99.90;;;;;;4999797;28;20360;-76
2022/09/19 11:56:00;;;;;;;11.27;2.30;;;16.20;99.90;;;;;;5026806;28;20049;-77
2022/09/19 11:59:01;;;;;;;13.85;2.20;;;16.30;99.90;;;;;;5010354;28;20048;-85
2022/09/19 12:01:53;;;;;;;10.18;2.42;;;16.40;99.90;;;;;;5025962;28;20091;-82
2022/09/19 12:04:27;;;;;;;14.52;3.10;;;16.50;99.90;;;;;;5021595;28;20512;-83
2022/09/19 12:07:07;;;;;;;18.80;3.85;;;16.50;99.90;;;;;;5026846;28;20050;-83
2022/09/19 12:09:44;;;;;;;10.20;2.42;;;16.50;99.90;;;;;;5024102;28;20799;-79
2022/09/19 12:12:21;;;;;;;13.18;2.83;;;16.40;99.90;;;;;;5024383;28;20045;-81
2022/09/19 12:15:16;;;;;;;12.07;2.63;;;16.40;99.90;;;;;;5010014;28;20506;-82
2022/09/19 12:17:50;;;;;;;10.65;2.28;;;16.30;99.90;;;;;;5023418;28;20052;-80
2022/09/19 12:20:34;;;;;;;10.48;2.28;;;16.30;99.90;;;;;;5019907;28;20495;-77
2022/09/19 12:26:53;;;;;;;10.13;1.90;;;16.10;99.90;;;;;;5098228;22;20110;-88
2022/09/19 12:29:36;;;;;;;10.77;2.38;;;16.00;99.90;;;;;;4987672;28;20472;-77
2022/09/19 12:32:26;;;;;;;13.15;2.53;;;16.10;99.90;;;;;;4986771;28;20109;-79
2022/09/19 12:38:27;;;;;;;11.15;2.28;;;16.20;99.90;;;;;;4978803;28;20060;-79
2022/09/19 12:41:17;;;;;;;9.15;2.20;;;16.10;99.90;;;;;;4985929;28;20762;-82
2022/09/19 12:44:13;;;;;;;15.15;2.50;;;16.10;99.90;;;;;;4971685;28;20133;-79
2022/09/19 12:46:50;;;;;;;9.02;2.20;;;16.00;99.90;;;;;;4985708;28;20042;-82
2022/09/19 12:49:42;;;;;;;7.70;1.77;;;15.90;99.90;;;;;;4982984;28;20052;-82
2022/09/19 12:52:14;;;;;;;9.75;1.90;;;15.60;99.90;;;;;;4984737;28;20393;-87
2022/09/19 12:57:57;;;;;;;7.05;1.70;;;15.20;99.90;;;;;;4987002;28;20106;-83
2022/09/19 13:00:24;;;;;;;9.18;1.92;;;15.10;99.90;;;;;;4986958;28;20043;-81
2022/09/19 13:02:51;;;;;;;;;;;15.10;99.90;;;;;;4970758;28;20493;-82
2022/09/19 13:05:43;;;;;;;7.00;1.50;;;15.00;99.90;;;;;;4970205;28;19922;-82
2022/09/19 13:08:39;;;;;;;5.60;1.40;;;15.00;99.90;;;;;;4986325;28;20050;-83
2022/09/19 13:11:24;;;;;;;9.07;2.10;;;15.00;99.90;;;;;;4985428;28;20070;-83
2022/09/19 13:13:56;;;;;;;9.20;1.80;;;15.00;99.90;;;;;;4969607;28;20078;-78
2022/09/19 13:16:29;;;;;;;10.52;2.10;;;15.00;99.90;;;;;;4982850;28;20081;-84
2022/09/19 13:24:47;;;;;;;8.95;2.17;;;15.20;99.90;;;;;;4954871;28;20050;-82
2022/09/19 13:27:14;;;;;;;9.10;2.30;;;15.30;99.90;;;;;;4978291;28;20584;-83
2022/09/19 13:29:44;;;;;;;12.05;2.13;;;15.40;99.90;;;;;;4971218;28;20133;-80
2022/09/19 13:32:34;;;;;;;7.13;1.67;;;15.40;99.90;;;;;;4985345;28;20050;-82
2022/09/19 13:35:07;;;;;;;12.75;2.25;;;15.60;99.90;;;;;;4962499;28;20899;-86
2022/09/19 13:37:46;;;;;;;12.63;2.20;;;15.80;99.90;;;;;;4978721;23;20081;-81
2022/09/19 13:40:24;;;;;;;10.15;2.05;;;15.90;99.90;;;;;;5002689;28;20437;-82
2022/09/19 13:43:18;;;;;;;8.02;2.13;;;16.00;99.90;;;;;;5002685;28;20042;-82
2022/09/19 13:45:57;;;;;;;10.68;2.30;;;16.10;99.90;;;;;;5004095;28;20120;-84
2022/09/19 13:48:35;;;;;;;11.43;2.15;;;16.30;99.90;;;;;;4989058;28;20495;-88
2022/09/19 13:51:10;;;;;;;11.77;2.15;;;16.20;99.90;;;;;;4988456;28;20485;-84
2022/09/19 13:53:44;;;;;;;10.52;1.88;;;16.20;99.90;;;;;;5008099;28;20049;-83